sensor_id;sensor_type;location;lat;lon;timestamp;P1;durP1;ratioP1;P2;durP2;ratioP2
29576;SDS011;16509;53.862;10.672;2022-11-21T00:00:47;11.98;;;6.32;;
29576;SDS011;16509;53.862;10.672;2022-11-21T00:03:14;14.13;;;6.90;;
29576;SDS011;16509;53.862;10.672;2022-11-21T00:05:41;13.38;;;6.45;;
29576;SDS011;16509;53.862;10.672;2022-11-21T00:08:09;14.90;;;7.70;;
29576;SDS011;16509;53.862;10.672;2022-11-21T00:10:38;13.65;;;6.78;;
29576;SDS011;16509;53.862;10.672;2022-11-21T00:13:05;13.18;;;7.20;;
29576;SDS011;16509;53.862;10.672;2022-11-21T00:15:32;14.75;;;7.38;;
29576;SDS011;16509;53.862;10.672;2022-11-21T00:18:01;12.57;;;6.80;;
29576;SDS011;16509;53.862;10.672;2022-11-21T00:20:27;11.90;;;6.40;;
29576;SDS011;16509;53.862;10.672;2022-11-21T00:22:53;12.27;;;6.60;;
29576;SDS011;16509;53.862;10.672;2022-11-21T00:25:19;14.60;;;6.82;;
29576;SDS011;16509;53.862;10.672;2022-11-21T00:27:45;15.52;;;7.32;;
29576;SDS011;16509;53.862;10.672;2022-11-21T00:30:11;13.88;;;7.63;;
29576;SDS011;16509;53.862;10.672;2022-11-21T00:32:37;18.83;;;7.00;;
29576;SDS011;16509;53.862;10.672;2022-11-21T00:35:03;11.90;;;6.32;;
29576;SDS011;16509;53.862;10.672;2022-11-21T00:37:31;12.60;;;6.88;;
29576;SDS011;16509;53.862;10.672;2022-11-21T00:39:57;14.05;;;7.38;;
29576;SDS011;16509;53.862;10.672;2022-11-21T00:42:23;19.20;;;7.18;;
29576;SDS011;16509;53.862;10.672;2022-11-21T00:44:48;12.60;;;6.95;;
29576;SDS011;16509;53.862;10.672;2022-11-21T00:47:14;16.63;;;7.90;;
29576;SDS011;16509;53.862;10.672;2022-11-21T00:49:40;17.77;;;7.82;;
29576;SDS011;16509;53.862;10.672;2022-11-21T00:52:05;16.38;;;7.68;;
29576;SDS011;16509;53.862;10.672;2022-11-21T00:54:31;17.83;;;7.43;;
29576;SDS011;16509;53.862;10.672;2022-11-21T00:56:56;14.38;;;8.10;;
29576;SDS011;16509;53.862;10.672;2022-11-21T00:59:22;12.55;;;6.55;;
29576;SDS011;16509;53.862;10.672;2022-11-21T01:01:48;16.25;;;7.43;;
29576;SDS011;16509;53.862;10.672;2022-11-21T01:04:13;19.98;;;7.72;;
29576;SDS011;16509;53.862;10.672;2022-11-21T01:06:39;15.80;;;7.65;;
29576;SDS011;16509;53.862;10.672;2022-11-21T01:09:04;16.90;;;9.13;;
29576;SDS011;16509;53.862;10.672;2022-11-21T01:11:30;11.82;;;7.47;;
29576;SDS011;16509;53.862;10.672;2022-11-21T01:13:56;12.82;;;7.28;;
29576;SDS011;16509;53.862;10.672;2022-11-21T01:16:23;13.40;;;7.07;;
29576;SDS011;16509;53.862;10.672;2022-11-21T01:18:50;15.48;;;6.65;;
29576;SDS011;16509;53.862;10.672;2022-11-21T01:21:17;18.77;;;8.70;;
29576;SDS011;16509;53.862;10.672;2022-11-21T01:23:48;17.17;;;8.85;;
29576;SDS011;16509;53.862;10.672;2022-11-21T01:26:15;16.70;;;7.43;;
29576;SDS011;16509;53.862;10.672;2022-11-21T01:28:42;11.23;;;6.70;;
29576;SDS011;16509;53.862;10.672;2022-11-21T01:31:16;14.35;;;7.22;;
29576;SDS011;16509;53.862;10.672;2022-11-21T01:33:44;13.80;;;7.63;;
29576;SDS011;16509;53.862;10.672;2022-11-21T01:38:39;13.38;;;6.82;;
29576;SDS011;16509;53.862;10.672;2022-11-21T01:41:07;12.65;;;7.50;;
29576;SDS011;16509;53.862;10.672;2022-11-21T01:43:34;14.45;;;7.70;;
29576;SDS011;16509;53.862;10.672;2022-11-21T01:51:27;11.77;;;6.35;;
29576;SDS011;16509;53.862;10.672;2022-11-21T01:56:34;15.80;;;7.63;;
29576;SDS011;16509;53.862;10.672;2022-11-21T01:59:08;14.23;;;7.72;;
29576;SDS011;16509;53.862;10.672;2022-11-21T02:01:39;14.77;;;6.97;;
29576;SDS011;16509;53.862;10.672;2022-11-21T02:04:06;20.33;;;6.90;;
29576;SDS011;16509;53.862;10.672;2022-11-21T02:06:32;15.32;;;7.43;;
29576;SDS011;16509;53.862;10.672;2022-11-21T02:09:01;13.02;;;6.82;;
29576;SDS011;16509;53.862;10.672;2022-11-21T02:14:14;15.80;;;7.40;;
29576;SDS011;16509;53.862;10.672;2022-11-21T02:16:39;11.95;;;6.15;;
29576;SDS011;16509;53.862;10.672;2022-11-21T02:19:10;12.13;;;6.80;;
29576;SDS011;16509;53.862;10.672;2022-11-21T02:24:29;10.35;;;6.63;;
29576;SDS011;16509;53.862;10.672;2022-11-21T02:27:03;10.65;;;6.38;;
29576;SDS011;16509;53.862;10.672;2022-11-21T02:29:29;18.15;;;7.25;;
29576;SDS011;16509;53.862;10.672;2022-11-21T02:31:58;8.73;;;5.75;;
29576;SDS011;16509;53.862;10.672;2022-11-21T02:34:24;11.70;;;6.25;;
29576;SDS011;16509;53.862;10.672;2022-11-21T02:36:50;13.25;;;6.18;;
29576;SDS011;16509;53.862;10.672;2022-11-21T02:39:20;11.73;;;6.03;;
29576;SDS011;16509;53.862;10.672;2022-11-21T02:42:04;8.85;;;5.65;;
29576;SDS011;16509;53.862;10.672;2022-11-21T02:44:32;11.60;;;5.75;;
29576;SDS011;16509;53.862;10.672;2022-11-21T02:47:08;11.95;;;7.18;;
29576;SDS011;16509;53.862;10.672;2022-11-21T02:49:40;8.75;;;5.63;;
29576;SDS011;16509;53.862;10.672;2022-11-21T02:52:27;12.13;;;6.85;;
29576;SDS011;16509;53.862;10.672;2022-11-21T02:54:52;9.00;;;5.95;;
29576;SDS011;16509;53.862;10.672;2022-11-21T02:57:18;11.68;;;6.22;;
29576;SDS011;16509;53.862;10.672;2022-11-21T02:59:44;9.27;;;5.95;;
29576;SDS011;16509;53.862;10.672;2022-11-21T03:02:09;11.85;;;6.10;;
29576;SDS011;16509;53.862;10.672;2022-11-21T03:04:35;11.02;;;5.97;;
29576;SDS011;16509;53.862;10.672;2022-11-21T03:07:00;13.70;;;6.32;;
29576;SDS011;16509;53.862;10.672;2022-11-21T03:09:26;12.98;;;5.28;;
29576;SDS011;16509;53.862;10.672;2022-11-21T03:11:52;12.43;;;5.63;;
29576;SDS011;16509;53.862;10.672;2022-11-21T03:14:18;9.60;;;6.15;;
29576;SDS011;16509;53.862;10.672;2022-11-21T03:16:44;10.93;;;6.10;;
29576;SDS011;16509;53.862;10.672;2022-11-21T03:19:09;15.27;;;6.30;;
29576;SDS011;16509;53.862;10.672;2022-11-21T03:21:35;12.43;;;6.20;;
29576;SDS011;16509;53.862;10.672;2022-11-21T03:24:01;13.88;;;5.82;;
29576;SDS011;16509;53.862;10.672;2022-11-21T03:26:26;10.82;;;5.20;;
29576;SDS011;16509;53.862;10.672;2022-11-21T03:28:52;17.42;;;6.30;;
29576;SDS011;16509;53.862;10.672;2022-11-21T03:31:18;10.57;;;5.95;;
29576;SDS011;16509;53.862;10.672;2022-11-21T03:33:43;12.38;;;5.55;;
29576;SDS011;16509;53.862;10.672;2022-11-21T03:36:09;6.40;;;4.70;;
29576;SDS011;16509;53.862;10.672;2022-11-21T03:38:36;8.65;;;4.88;;
29576;SDS011;16509;53.862;10.672;2022-11-21T03:41:05;16.30;;;5.90;;
29576;SDS011;16509;53.862;10.672;2022-11-21T03:43:51;9.20;;;4.80;;
29576;SDS011;16509;53.862;10.672;2022-11-21T03:46:16;8.80;;;5.40;;
29576;SDS011;16509;53.862;10.672;2022-11-21T03:48:42;12.52;;;5.95;;
29576;SDS011;16509;53.862;10.672;2022-11-21T03:51:08;11.13;;;6.10;;
29576;SDS011;16509;53.862;10.672;2022-11-21T03:53:33;8.70;;;5.40;;
29576;SDS011;16509;53.862;10.672;2022-11-21T03:55:59;14.07;;;6.50;;
29576;SDS011;16509;53.862;10.672;2022-11-21T03:58:24;11.00;;;6.25;;
29576;SDS011;16509;53.862;10.672;2022-11-21T04:00:50;9.00;;;5.65;;
29576;SDS011;16509;53.862;10.672;2022-11-21T04:05:45;10.73;;;6.13;;
29576;SDS011;16509;53.862;10.672;2022-11-21T04:08:11;11.75;;;6.72;;
29576;SDS011;16509;53.862;10.672;2022-11-21T04:10:36;10.88;;;6.38;;
29576;SDS011;16509;53.862;10.672;2022-11-21T04:13:02;10.32;;;6.43;;
29576;SDS011;16509;53.862;10.672;2022-11-21T04:15:28;12.15;;;5.82;;
29576;SDS011;16509;53.862;10.672;2022-11-21T04:17:53;9.75;;;5.65;;
29576;SDS011;16509;53.862;10.672;2022-11-21T04:20:19;11.35;;;6.15;;
29576;SDS011;16509;53.862;10.672;2022-11-21T04:22:44;9.15;;;5.70;;
29576;SDS011;16509;53.862;10.672;2022-11-21T04:25:10;13.63;;;6.43;;
29576;SDS011;16509;53.862;10.672;2022-11-21T04:27:37;10.90;;;5.63;;
29576;SDS011;16509;53.862;10.672;2022-11-21T04:30:03;14.88;;;6.55;;
29576;SDS011;16509;53.862;10.672;2022-11-21T04:32:30;13.02;;;7.25;;
29576;SDS011;16509;53.862;10.672;2022-11-21T04:35:02;11.65;;;5.78;;
29576;SDS011;16509;53.862;10.672;2022-11-21T04:37:28;13.57;;;6.95;;
29576;SDS011;16509;53.862;10.672;2022-11-21T04:39:53;14.32;;;6.22;;
29576;SDS011;16509;53.862;10.672;2022-11-21T04:42:19;14.68;;;6.55;;
29576;SDS011;16509;53.862;10.672;2022-11-21T04:44:44;11.65;;;6.03;;
29576;SDS011;16509;53.862;10.672;2022-11-21T04:47:10;11.05;;;6.70;;
29576;SDS011;16509;53.862;10.672;2022-11-21T04:49:35;10.38;;;6.05;;
29576;SDS011;16509;53.862;10.672;2022-11-21T04:52:01;11.75;;;6.75;;
29576;SDS011;16509;53.862;10.672;2022-11-21T04:54:27;12.27;;;5.97;;
29576;SDS011;16509;53.862;10.672;2022-11-21T04:56:52;12.10;;;6.80;;
29576;SDS011;16509;53.862;10.672;2022-11-21T04:59:18;13.65;;;6.20;;
29576;SDS011;16509;53.862;10.672;2022-11-21T05:01:44;13.38;;;6.20;;
29576;SDS011;16509;53.862;10.672;2022-11-21T05:04:10;11.63;;;6.22;;
29576;SDS011;16509;53.862;10.672;2022-11-21T05:06:36;11.43;;;6.88;;
29576;SDS011;16509;53.862;10.672;2022-11-21T05:09:02;10.77;;;6.28;;
29576;SDS011;16509;53.862;10.672;2022-11-21T05:11:27;11.82;;;6.63;;
29576;SDS011;16509;53.862;10.672;2022-11-21T05:14:11;10.82;;;6.30;;
29576;SDS011;16509;53.862;10.672;2022-11-21T05:16:39;11.32;;;6.38;;
29576;SDS011;16509;53.862;10.672;2022-11-21T05:19:05;11.57;;;6.60;;
29576;SDS011;16509;53.862;10.672;2022-11-21T05:21:31;15.55;;;7.05;;
29576;SDS011;16509;53.862;10.672;2022-11-21T05:23:57;12.07;;;7.22;;
29576;SDS011;16509;53.862;10.672;2022-11-21T05:26:22;9.10;;;5.57;;
29576;SDS011;16509;53.862;10.672;2022-11-21T05:28:48;11.13;;;6.05;;
29576;SDS011;16509;53.862;10.672;2022-11-21T05:31:14;11.88;;;6.43;;
29576;SDS011;16509;53.862;10.672;2022-11-21T05:33:39;12.50;;;6.95;;
29576;SDS011;16509;53.862;10.672;2022-11-21T05:36:05;19.00;;;7.13;;
29576;SDS011;16509;53.862;10.672;2022-11-21T05:38:30;10.25;;;6.50;;
29576;SDS011;16509;53.862;10.672;2022-11-21T05:40:56;13.80;;;6.88;;
29576;SDS011;16509;53.862;10.672;2022-11-21T05:43:21;10.98;;;6.25;;
29576;SDS011;16509;53.862;10.672;2022-11-21T05:46:09;11.73;;;6.43;;
29576;SDS011;16509;53.862;10.672;2022-11-21T05:48:34;12.25;;;6.07;;
29576;SDS011;16509;53.862;10.672;2022-11-21T05:51:01;13.63;;;6.65;;
29576;SDS011;16509;53.862;10.672;2022-11-21T05:53:27;10.95;;;6.13;;
29576;SDS011;16509;53.862;10.672;2022-11-21T05:55:53;11.18;;;6.18;;
29576;SDS011;16509;53.862;10.672;2022-11-21T05:58:19;13.18;;;5.75;;
29576;SDS011;16509;53.862;10.672;2022-11-21T06:00:44;11.60;;;5.80;;
29576;SDS011;16509;53.862;10.672;2022-11-21T06:03:10;11.90;;;6.43;;
29576;SDS011;16509;53.862;10.672;2022-11-21T06:08:32;14.77;;;5.63;;
29576;SDS011;16509;53.862;10.672;2022-11-21T06:11:02;11.27;;;5.80;;
29576;SDS011;16509;53.862;10.672;2022-11-21T06:13:29;9.52;;;5.50;;
29576;SDS011;16509;53.862;10.672;2022-11-21T06:18:26;9.65;;;4.88;;
29576;SDS011;16509;53.862;10.672;2022-11-21T06:20:52;10.63;;;5.18;;
29576;SDS011;16509;53.862;10.672;2022-11-21T06:23:24;12.85;;;6.55;;
29576;SDS011;16509;53.862;10.672;2022-11-21T06:25:54;10.73;;;6.15;;
29576;SDS011;16509;53.862;10.672;2022-11-21T06:28:25;13.18;;;5.93;;
29576;SDS011;16509;53.862;10.672;2022-11-21T06:30:53;14.15;;;6.53;;
29576;SDS011;16509;53.862;10.672;2022-11-21T06:33:19;12.23;;;6.85;;
29576;SDS011;16509;53.862;10.672;2022-11-21T06:35:46;10.48;;;6.18;;
29576;SDS011;16509;53.862;10.672;2022-11-21T06:38:11;21.67;;;7.10;;
29576;SDS011;16509;53.862;10.672;2022-11-21T06:40:38;13.77;;;6.90;;
29576;SDS011;16509;53.862;10.672;2022-11-21T06:43:04;10.77;;;6.20;;
29576;SDS011;16509;53.862;10.672;2022-11-21T06:45:30;14.38;;;7.10;;
29576;SDS011;16509;53.862;10.672;2022-11-21T06:47:55;13.63;;;6.97;;
29576;SDS011;16509;53.862;10.672;2022-11-21T06:50:21;14.70;;;7.10;;
29576;SDS011;16509;53.862;10.672;2022-11-21T06:52:48;12.10;;;6.85;;
29576;SDS011;16509;53.862;10.672;2022-11-21T06:55:13;14.23;;;6.45;;
29576;SDS011;16509;53.862;10.672;2022-11-21T06:57:39;13.10;;;6.05;;
29576;SDS011;16509;53.862;10.672;2022-11-21T07:00:05;13.32;;;7.40;;
29576;SDS011;16509;53.862;10.672;2022-11-21T07:02:31;15.13;;;6.65;;
29576;SDS011;16509;53.862;10.672;2022-11-21T07:04:57;17.42;;;7.55;;
29576;SDS011;16509;53.862;10.672;2022-11-21T07:07:23;9.68;;;6.05;;
29576;SDS011;16509;53.862;10.672;2022-11-21T07:09:49;14.57;;;7.45;;
29576;SDS011;16509;53.862;10.672;2022-11-21T07:12:15;9.52;;;5.78;;
29576;SDS011;16509;53.862;10.672;2022-11-21T07:14:59;13.25;;;6.50;;
29576;SDS011;16509;53.862;10.672;2022-11-21T07:17:24;15.60;;;6.60;;
29576;SDS011;16509;53.862;10.672;2022-11-21T07:19:50;11.48;;;7.30;;
29576;SDS011;16509;53.862;10.672;2022-11-21T07:22:15;15.18;;;6.28;;
29576;SDS011;16509;53.862;10.672;2022-11-21T07:24:41;12.68;;;6.57;;
29576;SDS011;16509;53.862;10.672;2022-11-21T07:27:08;18.92;;;7.25;;
29576;SDS011;16509;53.862;10.672;2022-11-21T07:29:33;17.30;;;7.78;;
29576;SDS011;16509;53.862;10.672;2022-11-21T07:31:59;15.52;;;6.43;;
29576;SDS011;16509;53.862;10.672;2022-11-21T07:34:27;13.25;;;6.43;;
29576;SDS011;16509;53.862;10.672;2022-11-21T07:36:53;12.77;;;6.50;;
29576;SDS011;16509;53.862;10.672;2022-11-21T07:39:18;8.65;;;5.45;;
29576;SDS011;16509;53.862;10.672;2022-11-21T07:41:44;15.10;;;7.30;;
29576;SDS011;16509;53.862;10.672;2022-11-21T07:44:09;18.95;;;7.18;;
29576;SDS011;16509;53.862;10.672;2022-11-21T07:46:35;12.85;;;6.38;;
29576;SDS011;16509;53.862;10.672;2022-11-21T07:49:01;10.50;;;6.65;;
29576;SDS011;16509;53.862;10.672;2022-11-21T07:51:26;12.55;;;6.80;;
29576;SDS011;16509;53.862;10.672;2022-11-21T07:53:52;11.95;;;7.00;;
29576;SDS011;16509;53.862;10.672;2022-11-21T07:56:18;10.95;;;6.70;;
29576;SDS011;16509;53.862;10.672;2022-11-21T07:58:44;17.42;;;8.80;;
29576;SDS011;16509;53.862;10.672;2022-11-21T08:01:11;13.18;;;7.57;;
29576;SDS011;16509;53.862;10.672;2022-11-21T08:03:37;13.20;;;7.60;;
29576;SDS011;16509;53.862;10.672;2022-11-21T08:06:07;11.43;;;7.55;;
29576;SDS011;16509;53.862;10.672;2022-11-21T08:08:34;13.80;;;6.82;;
29576;SDS011;16509;53.862;10.672;2022-11-21T08:11:02;10.77;;;6.40;;
29576;SDS011;16509;53.862;10.672;2022-11-21T08:13:31;13.35;;;6.93;;
29576;SDS011;16509;53.862;10.672;2022-11-21T08:15:58;13.80;;;6.90;;
29576;SDS011;16509;53.862;10.672;2022-11-21T08:18:23;13.77;;;7.03;;
29576;SDS011;16509;53.862;10.672;2022-11-21T08:23:17;16.48;;;8.05;;
29576;SDS011;16509;53.862;10.672;2022-11-21T08:25:43;15.70;;;7.40;;
29576;SDS011;16509;53.862;10.672;2022-11-21T08:28:09;17.92;;;9.00;;
29576;SDS011;16509;53.862;10.672;2022-11-21T11:44:29;17.38;;;8.73;;
29576;SDS011;16509;53.862;10.672;2022-11-21T11:47:52;21.40;;;8.77;;
29576;SDS011;16509;53.862;10.672;2022-11-21T11:50:24;19.55;;;8.25;;
29576;SDS011;16509;53.862;10.672;2022-11-21T11:53:14;19.42;;;8.68;;
29576;SDS011;16509;53.862;10.672;2022-11-21T12:01:02;23.85;;;9.68;;
29576;SDS011;16509;53.862;10.672;2022-11-21T12:06:16;18.67;;;8.73;;
29576;SDS011;16509;53.862;10.672;2022-11-21T12:11:49;17.33;;;8.18;;
29576;SDS011;16509;53.862;10.672;2022-11-21T12:17:57;17.60;;;8.40;;
29576;SDS011;16509;53.862;10.672;2022-11-21T12:20:28;24.50;;;9.10;;
29576;SDS011;16509;53.862;10.672;2022-11-21T12:22:58;18.63;;;8.95;;
29576;SDS011;16509;53.862;10.672;2022-11-21T12:25:28;19.80;;;9.07;;
29576;SDS011;16509;53.862;10.672;2022-11-21T12:27:56;20.10;;;7.57;;
29576;SDS011;16509;53.862;10.672;2022-11-21T12:33:19;18.00;;;8.73;;
29576;SDS011;16509;53.862;10.672;2022-11-21T12:52:30;21.95;;;8.60;;
29576;SDS011;16509;53.862;10.672;2022-11-21T13:06:54;14.50;;;6.65;;
29576;SDS011;16509;53.862;10.672;2022-11-21T13:09:04;14.13;;;7.22;;
29576;SDS011;16509;53.862;10.672;2022-11-21T13:11:37;18.42;;;8.50;;
29576;SDS011;16509;53.862;10.672;2022-11-21T13:14:32;14.55;;;7.10;;
29576;SDS011;16509;53.862;10.672;2022-11-21T13:25:34;14.63;;;6.88;;
29576;SDS011;16509;53.862;10.672;2022-11-21T13:30:45;17.67;;;8.05;;
29576;SDS011;16509;53.862;10.672;2022-11-21T13:35:58;16.20;;;7.72;;
29576;SDS011;16509;53.862;10.672;2022-11-21T13:46:57;16.95;;;7.40;;
29576;SDS011;16509;53.862;10.672;2022-11-21T13:49:33;18.58;;;8.15;;
29576;SDS011;16509;53.862;10.672;2022-11-21T13:52:12;16.65;;;7.60;;
29576;SDS011;16509;53.862;10.672;2022-11-21T13:54:55;15.27;;;7.97;;
29576;SDS011;16509;53.862;10.672;2022-11-21T14:00:24;16.38;;;7.25;;
29576;SDS011;16509;53.862;10.672;2022-11-21T14:05:59;15.38;;;7.63;;
29576;SDS011;16509;53.862;10.672;2022-11-21T14:08:36;17.08;;;7.82;;
29576;SDS011;16509;53.862;10.672;2022-11-21T14:14:22;19.95;;;8.68;;
29576;SDS011;16509;53.862;10.672;2022-11-21T14:16:51;18.35;;;7.85;;
29576;SDS011;16509;53.862;10.672;2022-11-21T14:19:41;16.83;;;7.70;;
29576;SDS011;16509;53.862;10.672;2022-11-21T14:22:14;18.98;;;8.88;;
29576;SDS011;16509;53.862;10.672;2022-11-21T14:24:55;20.00;;;7.95;;
29576;SDS011;16509;53.862;10.672;2022-11-21T14:27:27;16.02;;;7.68;;
29576;SDS011;16509;53.862;10.672;2022-11-21T14:29:55;18.17;;;8.90;;
29576;SDS011;16509;53.862;10.672;2022-11-21T14:32:24;19.27;;;9.13;;
29576;SDS011;16509;53.862;10.672;2022-11-21T14:35:38;23.95;;;9.63;;
29576;SDS011;16509;53.862;10.672;2022-11-21T14:37:45;19.67;;;8.70;;
29576;SDS011;16509;53.862;10.672;2022-11-21T14:40:21;20.58;;;9.45;;
29576;SDS011;16509;53.862;10.672;2022-11-21T14:42:47;18.58;;;8.68;;
29576;SDS011;16509;53.862;10.672;2022-11-21T14:47:45;16.77;;;7.68;;
29576;SDS011;16509;53.862;10.672;2022-11-21T14:52:58;20.60;;;8.32;;
29576;SDS011;16509;53.862;10.672;2022-11-21T14:55:28;19.75;;;8.65;;
29576;SDS011;16509;53.862;10.672;2022-11-21T14:57:56;22.58;;;9.95;;
29576;SDS011;16509;53.862;10.672;2022-11-21T15:00:28;19.15;;;8.40;;
29576;SDS011;16509;53.862;10.672;2022-11-21T15:02:55;17.27;;;8.52;;
29576;SDS011;16509;53.862;10.672;2022-11-21T15:05:29;19.38;;;9.20;;
29576;SDS011;16509;53.862;10.672;2022-11-21T15:07:57;23.05;;;9.27;;
29576;SDS011;16509;53.862;10.672;2022-11-21T15:10:24;20.40;;;9.25;;
29576;SDS011;16509;53.862;10.672;2022-11-21T15:12:59;19.13;;;9.27;;
29576;SDS011;16509;53.862;10.672;2022-11-21T15:15:37;22.20;;;8.95;;
29576;SDS011;16509;53.862;10.672;2022-11-21T15:18:25;22.00;;;8.30;;
29576;SDS011;16509;53.862;10.672;2022-11-21T15:21:02;24.52;;;9.35;;
29576;SDS011;16509;53.862;10.672;2022-11-21T15:23:29;19.33;;;8.32;;
29576;SDS011;16509;53.862;10.672;2022-11-21T15:25:55;18.58;;;8.30;;
29576;SDS011;16509;53.862;10.672;2022-11-21T15:28:21;25.25;;;9.73;;
29576;SDS011;16509;53.862;10.672;2022-11-21T15:30:47;21.00;;;10.30;;
29576;SDS011;16509;53.862;10.672;2022-11-21T15:33:55;18.67;;;8.27;;
29576;SDS011;16509;53.862;10.672;2022-11-21T15:36:26;21.15;;;9.23;;
29576;SDS011;16509;53.862;10.672;2022-11-21T15:41:31;21.90;;;9.80;;
29576;SDS011;16509;53.862;10.672;2022-11-21T15:48:55;25.08;;;8.43;;
29576;SDS011;16509;53.862;10.672;2022-11-21T15:51:30;21.50;;;10.20;;
29576;SDS011;16509;53.862;10.672;2022-11-21T15:56:27;19.42;;;8.23;;
29576;SDS011;16509;53.862;10.672;2022-11-21T15:58:52;25.23;;;10.18;;
29576;SDS011;16509;53.862;10.672;2022-11-21T16:01:22;24.20;;;10.52;;
29576;SDS011;16509;53.862;10.672;2022-11-21T16:03:53;21.30;;;9.60;;
29576;SDS011;16509;53.862;10.672;2022-11-21T16:06:21;18.00;;;9.18;;
29576;SDS011;16509;53.862;10.672;2022-11-21T16:08:48;22.58;;;9.82;;
29576;SDS011;16509;53.862;10.672;2022-11-21T16:13:50;20.45;;;9.48;;
29576;SDS011;16509;53.862;10.672;2022-11-21T16:16:17;23.98;;;9.25;;
29576;SDS011;16509;53.862;10.672;2022-11-21T16:18:44;21.52;;;8.25;;
29576;SDS011;16509;53.862;10.672;2022-11-21T16:21:10;21.50;;;9.85;;
29576;SDS011;16509;53.862;10.672;2022-11-21T16:23:36;20.33;;;8.45;;
29576;SDS011;16509;53.862;10.672;2022-11-21T16:26:02;24.77;;;9.35;;
29576;SDS011;16509;53.862;10.672;2022-11-21T16:28:29;22.75;;;8.90;;
29576;SDS011;16509;53.862;10.672;2022-11-21T16:30:56;25.75;;;9.90;;
29576;SDS011;16509;53.862;10.672;2022-11-21T16:33:22;19.05;;;8.88;;
29576;SDS011;16509;53.862;10.672;2022-11-21T16:35:49;26.40;;;9.52;;
29576;SDS011;16509;53.862;10.672;2022-11-21T16:38:22;27.42;;;9.18;;
29576;SDS011;16509;53.862;10.672;2022-11-21T16:40:56;25.80;;;10.13;;
29576;SDS011;16509;53.862;10.672;2022-11-21T16:43:23;26.92;;;9.10;;
29576;SDS011;16509;53.862;10.672;2022-11-21T16:45:49;18.98;;;8.38;;
29576;SDS011;16509;53.862;10.672;2022-11-21T16:48:16;22.20;;;9.30;;
29576;SDS011;16509;53.862;10.672;2022-11-21T16:50:43;24.70;;;9.93;;
29576;SDS011;16509;53.862;10.672;2022-11-21T16:53:09;17.90;;;8.13;;
29576;SDS011;16509;53.862;10.672;2022-11-21T16:55:36;19.60;;;8.52;;
29576;SDS011;16509;53.862;10.672;2022-11-21T16:58:04;19.73;;;8.52;;
29576;SDS011;16509;53.862;10.672;2022-11-21T17:00:30;16.88;;;7.85;;
29576;SDS011;16509;53.862;10.672;2022-11-21T17:02:59;21.23;;;9.57;;
29576;SDS011;16509;53.862;10.672;2022-11-21T17:05:26;24.00;;;9.05;;
29576;SDS011;16509;53.862;10.672;2022-11-21T17:07:52;20.80;;;9.48;;
29576;SDS011;16509;53.862;10.672;2022-11-21T17:10:18;30.02;;;9.82;;
29576;SDS011;16509;53.862;10.672;2022-11-21T17:12:44;37.58;;;10.88;;
29576;SDS011;16509;53.862;10.672;2022-11-21T17:15:11;24.45;;;9.85;;
29576;SDS011;16509;53.862;10.672;2022-11-21T17:17:38;24.45;;;9.38;;
29576;SDS011;16509;53.862;10.672;2022-11-21T17:20:06;26.17;;;10.60;;
29576;SDS011;16509;53.862;10.672;2022-11-21T17:22:33;21.35;;;9.40;;
29576;SDS011;16509;53.862;10.672;2022-11-21T17:25:00;21.38;;;10.13;;
29576;SDS011;16509;53.862;10.672;2022-11-21T17:27:26;24.52;;;10.40;;
29576;SDS011;16509;53.862;10.672;2022-11-21T17:29:52;21.83;;;9.25;;
29576;SDS011;16509;53.862;10.672;2022-11-21T17:32:17;18.95;;;8.98;;
29576;SDS011;16509;53.862;10.672;2022-11-21T17:34:43;19.15;;;8.05;;
29576;SDS011;16509;53.862;10.672;2022-11-21T17:37:09;17.73;;;9.25;;
29576;SDS011;16509;53.862;10.672;2022-11-21T17:39:37;19.27;;;8.15;;
29576;SDS011;16509;53.862;10.672;2022-11-21T17:42:05;20.55;;;8.30;;
29576;SDS011;16509;53.862;10.672;2022-11-21T17:44:31;23.90;;;8.73;;
29576;SDS011;16509;53.862;10.672;2022-11-21T17:46:57;17.55;;;8.15;;
29576;SDS011;16509;53.862;10.672;2022-11-21T17:49:25;17.35;;;8.10;;
29576;SDS011;16509;53.862;10.672;2022-11-21T17:51:54;20.00;;;8.30;;
29576;SDS011;16509;53.862;10.672;2022-11-21T17:54:20;21.13;;;8.60;;
29576;SDS011;16509;53.862;10.672;2022-11-21T17:56:46;19.63;;;7.93;;
29576;SDS011;16509;53.862;10.672;2022-11-21T17:59:12;21.90;;;8.73;;
29576;SDS011;16509;53.862;10.672;2022-11-21T18:01:38;18.20;;;7.82;;
29576;SDS011;16509;53.862;10.672;2022-11-21T18:04:04;17.70;;;7.78;;
29576;SDS011;16509;53.862;10.672;2022-11-21T18:06:32;18.55;;;7.85;;
29576;SDS011;16509;53.862;10.672;2022-11-21T18:09:03;20.42;;;8.43;;
29576;SDS011;16509;53.862;10.672;2022-11-21T18:11:31;16.52;;;7.18;;
29576;SDS011;16509;53.862;10.672;2022-11-21T18:13:59;15.90;;;7.30;;
29576;SDS011;16509;53.862;10.672;2022-11-21T18:16:26;20.48;;;7.45;;
29576;SDS011;16509;53.862;10.672;2022-11-21T18:18:53;15.82;;;6.65;;
29576;SDS011;16509;53.862;10.672;2022-11-21T18:21:23;17.95;;;7.13;;
29576;SDS011;16509;53.862;10.672;2022-11-21T18:23:53;28.92;;;7.70;;
29576;SDS011;16509;53.862;10.672;2022-11-21T18:26:21;22.38;;;8.60;;
29576;SDS011;16509;53.862;10.672;2022-11-21T18:28:49;20.83;;;6.95;;
29576;SDS011;16509;53.862;10.672;2022-11-21T18:31:18;18.35;;;8.02;;
29576;SDS011;16509;53.862;10.672;2022-11-21T18:33:49;16.10;;;6.95;;
29576;SDS011;16509;53.862;10.672;2022-11-21T18:36:19;19.67;;;7.93;;
29576;SDS011;16509;53.862;10.672;2022-11-21T18:38:46;14.85;;;7.20;;
29576;SDS011;16509;53.862;10.672;2022-11-21T18:43:40;16.20;;;7.55;;
29576;SDS011;16509;53.862;10.672;2022-11-21T18:46:13;20.98;;;8.55;;
29576;SDS011;16509;53.862;10.672;2022-11-21T18:48:40;18.17;;;8.30;;
29576;SDS011;16509;53.862;10.672;2022-11-21T18:51:07;19.08;;;9.23;;
29576;SDS011;16509;53.862;10.672;2022-11-21T18:53:35;19.60;;;9.38;;
29576;SDS011;16509;53.862;10.672;2022-11-21T18:56:04;23.50;;;8.95;;
29576;SDS011;16509;53.862;10.672;2022-11-21T18:58:32;20.15;;;9.27;;
29576;SDS011;16509;53.862;10.672;2022-11-21T19:01:03;29.02;;;9.02;;
29576;SDS011;16509;53.862;10.672;2022-11-21T19:03:30;21.20;;;8.90;;
29576;SDS011;16509;53.862;10.672;2022-11-21T19:05:56;23.73;;;9.45;;
29576;SDS011;16509;53.862;10.672;2022-11-21T19:08:22;19.75;;;8.20;;
29576;SDS011;16509;53.862;10.672;2022-11-21T19:10:48;20.63;;;8.27;;
29576;SDS011;16509;53.862;10.672;2022-11-21T19:13:14;22.40;;;9.57;;
29576;SDS011;16509;53.862;10.672;2022-11-21T19:15:40;21.98;;;9.50;;
29576;SDS011;16509;53.862;10.672;2022-11-21T19:18:07;21.55;;;9.25;;
29576;SDS011;16509;53.862;10.672;2022-11-21T19:20:34;19.15;;;8.70;;
29576;SDS011;16509;53.862;10.672;2022-11-21T19:23:00;21.60;;;9.15;;
29576;SDS011;16509;53.862;10.672;2022-11-21T19:25:25;20.77;;;8.70;;
29576;SDS011;16509;53.862;10.672;2022-11-21T19:27:51;20.02;;;9.35;;
29576;SDS011;16509;53.862;10.672;2022-11-21T19:30:16;22.70;;;8.35;;
29576;SDS011;16509;53.862;10.672;2022-11-21T19:32:42;20.60;;;9.60;;
29576;SDS011;16509;53.862;10.672;2022-11-21T19:35:08;27.13;;;9.90;;
29576;SDS011;16509;53.862;10.672;2022-11-21T19:37:33;23.15;;;10.40;;
29576;SDS011;16509;53.862;10.672;2022-11-21T19:39:59;19.88;;;8.27;;
29576;SDS011;16509;53.862;10.672;2022-11-21T19:42:25;28.38;;;9.75;;
29576;SDS011;16509;53.862;10.672;2022-11-21T19:44:51;22.83;;;9.13;;